sensor_id;sensor_type;location;lat;lon;timestamp;P1;durP1;ratioP1;P2;durP2;ratioP2
23565;SDS011;22140;48.988;8.544;2023-01-28T00:02:49;9.88;;;3.70;;
23565;SDS011;22140;48.988;8.544;2023-01-28T00:07:50;9.80;;;3.53;;
23565;SDS011;22140;48.988;8.544;2023-01-28T00:12:52;7.68;;;2.60;;
23565;SDS011;22140;48.988;8.544;2023-01-28T00:17:53;7.38;;;2.70;;
23565;SDS011;22140;48.988;8.544;2023-01-28T00:22:55;8.70;;;2.90;;
23565;SDS011;22140;48.988;8.544;2023-01-28T00:27:56;7.65;;;2.65;;
23565;SDS011;22140;48.988;8.544;2023-01-28T00:32:59;9.13;;;2.63;;
23565;SDS011;22140;48.988;8.544;2023-01-28T00:38:01;8.60;;;2.85;;
23565;SDS011;22140;48.988;8.544;2023-01-28T00:43:03;9.02;;;2.45;;
23565;SDS011;22140;48.988;8.544;2023-01-28T00:48:04;9.77;;;2.67;;
23565;SDS011;22140;48.988;8.544;2023-01-28T00:53:06;7.72;;;2.72;;
23565;SDS011;22140;48.988;8.544;2023-01-28T00:58:08;7.43;;;2.40;;
23565;SDS011;22140;48.988;8.544;2023-01-28T01:03:09;7.40;;;2.15;;
23565;SDS011;22140;48.988;8.544;2023-01-28T01:08:10;8.52;;;2.67;;
23565;SDS011;22140;48.988;8.544;2023-01-28T01:13:11;8.20;;;2.20;;
23565;SDS011;22140;48.988;8.544;2023-01-28T01:18:13;12.65;;;4.57;;
23565;SDS011;22140;48.988;8.544;2023-01-28T01:23:14;15.53;;;3.83;;
23565;SDS011;22140;48.988;8.544;2023-01-28T01:28:15;14.85;;;3.15;;
23565;SDS011;22140;48.988;8.544;2023-01-28T01:33:17;10.98;;;3.22;;
23565;SDS011;22140;48.988;8.544;2023-01-28T01:38:18;8.00;;;2.70;;
23565;SDS011;22140;48.988;8.544;2023-01-28T01:43:20;8.30;;;2.47;;
23565;SDS011;22140;48.988;8.544;2023-01-28T01:48:31;6.63;;;2.40;;
23565;SDS011;22140;48.988;8.544;2023-01-28T01:53:34;11.43;;;3.38;;
23565;SDS011;22140;48.988;8.544;2023-01-28T01:58:37;8.05;;;2.55;;
23565;SDS011;22140;48.988;8.544;2023-01-28T02:09:21;10.40;;;3.05;;
23565;SDS011;22140;48.988;8.544;2023-01-28T02:14:23;7.93;;;2.70;;
23565;SDS011;22140;48.988;8.544;2023-01-28T02:20:15;8.73;;;3.05;;
23565;SDS011;22140;48.988;8.544;2023-01-28T02:25:40;6.97;;;2.78;;
23565;SDS011;22140;48.988;8.544;2023-01-28T02:30:24;8.73;;;3.37;;
23565;SDS011;22140;48.988;8.544;2023-01-28T02:35:28;7.43;;;2.70;;
23565;SDS011;22140;48.988;8.544;2023-01-28T02:40:33;7.97;;;2.47;;
23565;SDS011;22140;48.988;8.544;2023-01-28T02:45:55;7.97;;;2.50;;
23565;SDS011;22140;48.988;8.544;2023-01-28T02:51:19;7.35;;;2.80;;
23565;SDS011;22140;48.988;8.544;2023-01-28T03:01:32;7.28;;;2.70;;
23565;SDS011;22140;48.988;8.544;2023-01-28T03:06:39;8.60;;;3.30;;
23565;SDS011;22140;48.988;8.544;2023-01-28T03:11:42;7.45;;;2.50;;
23565;SDS011;22140;48.988;8.544;2023-01-28T03:17:02;7.68;;;2.65;;
23565;SDS011;22140;48.988;8.544;2023-01-28T03:22:26;9.17;;;3.00;;
23565;SDS011;22140;48.988;8.544;2023-01-28T03:27:52;8.40;;;2.47;;
23565;SDS011;22140;48.988;8.544;2023-01-28T03:33:14;7.63;;;2.40;;
23565;SDS011;22140;48.988;8.544;2023-01-28T03:38:34;7.13;;;2.40;;
23565;SDS011;22140;48.988;8.544;2023-01-28T03:43:42;7.85;;;2.45;;
23565;SDS011;22140;48.988;8.544;2023-01-28T03:48:45;7.40;;;2.30;;
23565;SDS011;22140;48.988;8.544;2023-01-28T03:53:46;6.32;;;1.98;;
23565;SDS011;22140;48.988;8.544;2023-01-28T03:58:47;7.17;;;2.37;;
23565;SDS011;22140;48.988;8.544;2023-01-28T04:03:57;5.93;;;2.10;;
23565;SDS011;22140;48.988;8.544;2023-01-28T04:08:58;9.15;;;3.70;;
23565;SDS011;22140;48.988;8.544;2023-01-28T04:14:02;7.03;;;2.23;;
23565;SDS011;22140;48.988;8.544;2023-01-28T04:19:03;7.78;;;2.67;;
23565;SDS011;22140;48.988;8.544;2023-01-28T04:24:05;8.13;;;3.10;;
23565;SDS011;22140;48.988;8.544;2023-01-28T04:29:06;9.70;;;2.95;;
23565;SDS011;22140;48.988;8.544;2023-01-28T04:34:08;8.48;;;2.70;;
23565;SDS011;22140;48.988;8.544;2023-01-28T04:39:10;8.97;;;2.87;;
23565;SDS011;22140;48.988;8.544;2023-01-28T04:44:11;7.68;;;2.45;;
23565;SDS011;22140;48.988;8.544;2023-01-28T04:49:13;6.67;;;2.43;;
23565;SDS011;22140;48.988;8.544;2023-01-28T04:54:15;8.18;;;2.50;;
23565;SDS011;22140;48.988;8.544;2023-01-28T04:59:16;10.50;;;2.90;;
23565;SDS011;22140;48.988;8.544;2023-01-28T05:04:18;8.13;;;3.07;;
23565;SDS011;22140;48.988;8.544;2023-01-28T05:09:19;9.40;;;2.90;;
23565;SDS011;22140;48.988;8.544;2023-01-28T05:14:21;7.03;;;2.63;;
23565;SDS011;22140;48.988;8.544;2023-01-28T05:19:22;7.95;;;2.67;;
23565;SDS011;22140;48.988;8.544;2023-01-28T05:24:23;8.18;;;2.80;;
23565;SDS011;22140;48.988;8.544;2023-01-28T05:29:25;10.00;;;3.10;;
23565;SDS011;22140;48.988;8.544;2023-01-28T05:34:26;8.85;;;3.50;;
23565;SDS011;22140;48.988;8.544;2023-01-28T05:39:27;7.63;;;3.10;;
23565;SDS011;22140;48.988;8.544;2023-01-28T05:44:28;7.43;;;2.70;;
23565;SDS011;22140;48.988;8.544;2023-01-28T05:49:30;8.02;;;3.20;;
23565;SDS011;22140;48.988;8.544;2023-01-28T05:54:31;7.60;;;2.87;;
23565;SDS011;22140;48.988;8.544;2023-01-28T05:59:32;7.43;;;2.85;;
23565;SDS011;22140;48.988;8.544;2023-01-28T06:04:34;8.00;;;2.90;;
23565;SDS011;22140;48.988;8.544;2023-01-28T06:09:35;7.75;;;2.90;;
23565;SDS011;22140;48.988;8.544;2023-01-28T06:14:36;7.70;;;2.70;;
23565;SDS011;22140;48.988;8.544;2023-01-28T06:19:37;7.77;;;3.00;;
23565;SDS011;22140;48.988;8.544;2023-01-28T06:24:39;8.48;;;3.40;;
23565;SDS011;22140;48.988;8.544;2023-01-28T06:29:40;8.20;;;3.27;;
23565;SDS011;22140;48.988;8.544;2023-01-28T06:34:41;10.32;;;3.38;;
23565;SDS011;22140;48.988;8.544;2023-01-28T06:39:42;8.30;;;3.40;;
23565;SDS011;22140;48.988;8.544;2023-01-28T06:44:44;7.60;;;3.00;;
23565;SDS011;22140;48.988;8.544;2023-01-28T06:49:45;9.82;;;3.50;;
23565;SDS011;22140;48.988;8.544;2023-01-28T06:54:46;11.60;;;3.93;;
23565;SDS011;22140;48.988;8.544;2023-01-28T06:59:48;10.57;;;4.28;;
23565;SDS011;22140;48.988;8.544;2023-01-28T07:04:49;11.00;;;3.72;;
23565;SDS011;22140;48.988;8.544;2023-01-28T07:09:50;11.60;;;4.07;;
23565;SDS011;22140;48.988;8.544;2023-01-28T07:14:51;9.55;;;3.58;;
23565;SDS011;22140;48.988;8.544;2023-01-28T07:19:53;10.13;;;4.27;;
23565;SDS011;22140;48.988;8.544;2023-01-28T07:24:54;11.30;;;4.13;;
23565;SDS011;22140;48.988;8.544;2023-01-28T07:29:55;9.38;;;3.72;;
23565;SDS011;22140;48.988;8.544;2023-01-28T07:34:57;10.10;;;3.93;;
23565;SDS011;22140;48.988;8.544;2023-01-28T07:39:58;10.13;;;3.72;;
23565;SDS011;22140;48.988;8.544;2023-01-28T07:45:00;10.67;;;4.10;;
23565;SDS011;22140;48.988;8.544;2023-01-28T07:50:01;11.98;;;4.13;;
23565;SDS011;22140;48.988;8.544;2023-01-28T07:55:03;10.73;;;4.07;;
23565;SDS011;22140;48.988;8.544;2023-01-28T08:00:04;10.13;;;3.90;;
23565;SDS011;22140;48.988;8.544;2023-01-28T08:05:06;13.48;;;5.20;;
23565;SDS011;22140;48.988;8.544;2023-01-28T08:10:08;11.80;;;5.07;;
23565;SDS011;22140;48.988;8.544;2023-01-28T08:15:10;13.52;;;5.38;;
23565;SDS011;22140;48.988;8.544;2023-01-28T08:20:11;12.43;;;5.05;;
23565;SDS011;22140;48.988;8.544;2023-01-28T08:25:13;13.57;;;5.97;;
23565;SDS011;22140;48.988;8.544;2023-01-28T08:30:14;16.17;;;6.90;;
23565;SDS011;22140;48.988;8.544;2023-01-28T08:35:16;15.63;;;7.43;;
23565;SDS011;22140;48.988;8.544;2023-01-28T08:40:18;16.90;;;6.68;;
23565;SDS011;22140;48.988;8.544;2023-01-28T08:45:20;13.75;;;5.97;;
23565;SDS011;22140;48.988;8.544;2023-01-28T08:50:30;13.07;;;4.53;;
23565;SDS011;22140;48.988;8.544;2023-01-28T08:55:33;13.70;;;5.10;;
23565;SDS011;22140;48.988;8.544;2023-01-28T09:00:34;12.40;;;5.00;;
23565;SDS011;22140;48.988;8.544;2023-01-28T09:05:36;11.30;;;4.70;;
23565;SDS011;22140;48.988;8.544;2023-01-28T09:10:38;12.27;;;4.38;;
23565;SDS011;22140;48.988;8.544;2023-01-28T09:15:40;10.17;;;3.93;;
23565;SDS011;22140;48.988;8.544;2023-01-28T09:20:41;12.23;;;4.40;;
23565;SDS011;22140;48.988;8.544;2023-01-28T09:25:42;15.27;;;5.10;;
23565;SDS011;22140;48.988;8.544;2023-01-28T09:30:44;17.23;;;6.05;;
23565;SDS011;22140;48.988;8.544;2023-01-28T09:35:45;15.25;;;5.70;;
23565;SDS011;22140;48.988;8.544;2023-01-28T09:40:46;13.57;;;5.13;;
23565;SDS011;22140;48.988;8.544;2023-01-28T09:45:48;14.63;;;5.30;;
23565;SDS011;22140;48.988;8.544;2023-01-28T09:50:51;13.50;;;4.90;;
23565;SDS011;22140;48.988;8.544;2023-01-28T09:55:59;11.20;;;4.75;;
23565;SDS011;22140;48.988;8.544;2023-01-28T10:11:46;11.35;;;4.38;;
23565;SDS011;22140;48.988;8.544;2023-01-28T10:17:03;13.43;;;4.33;;
23565;SDS011;22140;48.988;8.544;2023-01-28T10:22:10;11.65;;;4.55;;
23565;SDS011;22140;48.988;8.544;2023-01-28T10:27:14;13.63;;;5.22;;
23565;SDS011;22140;48.988;8.544;2023-01-28T10:32:25;13.07;;;4.40;;
23565;SDS011;22140;48.988;8.544;2023-01-28T10:37:28;12.13;;;5.25;;
23565;SDS011;22140;48.988;8.544;2023-01-28T10:42:35;13.70;;;4.77;;
23565;SDS011;22140;48.988;8.544;2023-01-28T10:47:40;11.80;;;4.32;;
23565;SDS011;22140;48.988;8.544;2023-01-28T10:52:56;11.23;;;4.30;;
23565;SDS011;22140;48.988;8.544;2023-01-28T10:57:58;11.37;;;4.37;;
23565;SDS011;22140;48.988;8.544;2023-01-28T11:02:59;15.23;;;5.85;;
23565;SDS011;22140;48.988;8.544;2023-01-28T11:18:32;14.38;;;5.10;;
23565;SDS011;22140;48.988;8.544;2023-01-28T11:23:39;17.60;;;6.03;;
23565;SDS011;22140;48.988;8.544;2023-01-28T11:28:46;20.38;;;6.07;;
23565;SDS011;22140;48.988;8.544;2023-01-28T11:33:48;17.60;;;6.97;;
23565;SDS011;22140;48.988;8.544;2023-01-28T11:43:52;11.88;;;4.70;;
23565;SDS011;22140;48.988;8.544;2023-01-28T11:59:19;15.93;;;6.17;;
23565;SDS011;22140;48.988;8.544;2023-01-28T12:04:33;12.52;;;5.20;;
23565;SDS011;22140;48.988;8.544;2023-01-28T12:35:10;11.15;;;3.80;;
23565;SDS011;22140;48.988;8.544;2023-01-28T12:50:35;7.27;;;3.10;;
23565;SDS011;22140;48.988;8.544;2023-01-28T12:55:45;9.15;;;3.45;;
23565;SDS011;22140;48.988;8.544;2023-01-28T13:00:49;9.05;;;4.03;;
23565;SDS011;22140;48.988;8.544;2023-01-28T13:05:53;11.27;;;3.60;;
23565;SDS011;22140;48.988;8.544;2023-01-28T13:10:56;9.23;;;3.55;;
23565;SDS011;22140;48.988;8.544;2023-01-28T13:15:59;8.10;;;2.90;;
23565;SDS011;22140;48.988;8.544;2023-01-28T13:21:02;8.68;;;3.00;;
23565;SDS011;22140;48.988;8.544;2023-01-28T13:26:11;8.13;;;3.40;;
23565;SDS011;22140;48.988;8.544;2023-01-28T13:31:25;9.97;;;3.57;;
23565;SDS011;22140;48.988;8.544;2023-01-28T13:36:37;10.23;;;4.07;;
23565;SDS011;22140;48.988;8.544;2023-01-28T13:46:41;12.20;;;4.13;;
23565;SDS011;22140;48.988;8.544;2023-01-28T13:51:51;16.23;;;6.13;;
23565;SDS011;22140;48.988;8.544;2023-01-28T13:57:02;14.10;;;4.43;;
23565;SDS011;22140;48.988;8.544;2023-01-28T14:17:48;11.25;;;3.67;;
23565;SDS011;22140;48.988;8.544;2023-01-28T14:22:51;12.17;;;4.20;;
23565;SDS011;22140;48.988;8.544;2023-01-28T14:27:55;10.90;;;4.55;;
23565;SDS011;22140;48.988;8.544;2023-01-28T14:32:58;11.93;;;4.30;;
23565;SDS011;22140;48.988;8.544;2023-01-28T14:37:59;11.52;;;4.13;;
23565;SDS011;22140;48.988;8.544;2023-01-28T14:43:07;10.50;;;3.83;;
23565;SDS011;22140;48.988;8.544;2023-01-28T14:59:02;20.07;;;6.67;;
23565;SDS011;22140;48.988;8.544;2023-01-28T15:09:26;11.25;;;4.47;;
23565;SDS011;22140;48.988;8.544;2023-01-28T15:14:30;15.53;;;5.00;;
23565;SDS011;22140;48.988;8.544;2023-01-28T15:19:32;13.65;;;4.50;;
23565;SDS011;22140;48.988;8.544;2023-01-28T15:24:35;11.47;;;4.40;;
23565;SDS011;22140;48.988;8.544;2023-01-28T15:29:37;9.52;;;3.75;;
23565;SDS011;22140;48.988;8.544;2023-01-28T15:34:44;18.10;;;5.40;;
23565;SDS011;22140;48.988;8.544;2023-01-28T15:39:45;21.13;;;6.13;;
23565;SDS011;22140;48.988;8.544;2023-01-28T15:44:46;8.88;;;3.47;;
23565;SDS011;22140;48.988;8.544;2023-01-28T15:49:49;9.87;;;4.00;;
23565;SDS011;22140;48.988;8.544;2023-01-28T15:54:51;10.60;;;4.28;;
23565;SDS011;22140;48.988;8.544;2023-01-28T16:10:26;13.98;;;5.93;;
23565;SDS011;22140;48.988;8.544;2023-01-28T16:15:28;12.30;;;4.63;;
23565;SDS011;22140;48.988;8.544;2023-01-28T16:20:29;11.65;;;4.68;;
23565;SDS011;22140;48.988;8.544;2023-01-28T16:25:32;16.58;;;7.22;;
23565;SDS011;22140;48.988;8.544;2023-01-28T16:30:36;11.93;;;4.80;;
23565;SDS011;22140;48.988;8.544;2023-01-28T16:35:38;9.23;;;3.95;;
23565;SDS011;22140;48.988;8.544;2023-01-28T16:41:00;11.77;;;4.77;;
23565;SDS011;22140;48.988;8.544;2023-01-28T16:46:02;10.55;;;4.57;;
23565;SDS011;22140;48.988;8.544;2023-01-28T16:51:09;11.35;;;4.75;;
23565;SDS011;22140;48.988;8.544;2023-01-28T16:56:24;15.20;;;6.53;;
23565;SDS011;22140;48.988;8.544;2023-01-28T17:01:46;13.75;;;5.93;;
23565;SDS011;22140;48.988;8.544;2023-01-28T17:06:47;10.93;;;4.40;;
23565;SDS011;22140;48.988;8.544;2023-01-28T17:11:49;9.70;;;4.72;;
23565;SDS011;22140;48.988;8.544;2023-01-28T17:16:51;8.45;;;3.55;;
23565;SDS011;22140;48.988;8.544;2023-01-28T17:21:52;11.70;;;4.30;;
23565;SDS011;22140;48.988;8.544;2023-01-28T17:26:53;17.08;;;6.82;;
23565;SDS011;22140;48.988;8.544;2023-01-28T17:31:55;10.07;;;4.20;;
23565;SDS011;22140;48.988;8.544;2023-01-28T17:36:56;10.52;;;3.95;;
23565;SDS011;22140;48.988;8.544;2023-01-28T17:41:58;11.95;;;4.60;;
23565;SDS011;22140;48.988;8.544;2023-01-28T17:46:59;9.97;;;4.20;;
23565;SDS011;22140;48.988;8.544;2023-01-28T17:52:01;9.02;;;3.85;;
23565;SDS011;22140;48.988;8.544;2023-01-28T17:57:10;8.67;;;3.80;;
23565;SDS011;22140;48.988;8.544;2023-01-28T18:02:14;13.70;;;4.90;;
23565;SDS011;22140;48.988;8.544;2023-01-28T18:07:15;26.77;;;9.00;;
23565;SDS011;22140;48.988;8.544;2023-01-28T18:12:17;50.53;;;18.30;;
23565;SDS011;22140;48.988;8.544;2023-01-28T18:17:18;21.52;;;8.18;;
23565;SDS011;22140;48.988;8.544;2023-01-28T18:22:19;14.63;;;5.60;;
23565;SDS011;22140;48.988;8.544;2023-01-28T18:27:20;14.60;;;5.25;;
23565;SDS011;22140;48.988;8.544;2023-01-28T18:32:23;11.13;;;4.05;;
23565;SDS011;22140;48.988;8.544;2023-01-28T18:37:24;12.00;;;4.27;;
23565;SDS011;22140;48.988;8.544;2023-01-28T18:42:26;10.52;;;4.43;;
23565;SDS011;22140;48.988;8.544;2023-01-28T18:47:27;10.87;;;4.53;;
23565;SDS011;22140;48.988;8.544;2023-01-28T18:52:28;10.73;;;4.35;;
23565;SDS011;22140;48.988;8.544;2023-01-28T18:57:30;10.88;;;4.75;;
23565;SDS011;22140;48.988;8.544;2023-01-28T19:02:31;20.13;;;8.67;;
23565;SDS011;22140;48.988;8.544;2023-01-28T19:07:32;11.45;;;4.50;;
23565;SDS011;22140;48.988;8.544;2023-01-28T19:12:34;15.17;;;7.30;;
23565;SDS011;22140;48.988;8.544;2023-01-28T19:17:36;11.98;;;5.90;;
23565;SDS011;22140;48.988;8.544;2023-01-28T19:22:37;11.15;;;4.97;;
23565;SDS011;22140;48.988;8.544;2023-01-28T19:27:42;11.17;;;4.60;;
23565;SDS011;22140;48.988;8.544;2023-01-28T19:32:43;13.18;;;6.28;;
23565;SDS011;22140;48.988;8.544;2023-01-28T19:37:50;15.83;;;6.50;;
23565;SDS011;22140;48.988;8.544;2023-01-28T19:42:51;14.00;;;5.38;;
23565;SDS011;22140;48.988;8.544;2023-01-28T19:47:53;16.02;;;6.57;;
23565;SDS011;22140;48.988;8.544;2023-01-28T19:52:54;15.23;;;7.13;;
23565;SDS011;22140;48.988;8.544;2023-01-28T19:57:55;21.45;;;9.98;;
23565;SDS011;22140;48.988;8.544;2023-01-28T20:02:57;10.03;;;4.50;;
23565;SDS011;22140;48.988;8.544;2023-01-28T20:07:58;12.02;;;4.82;;
23565;SDS011;22140;48.988;8.544;2023-01-28T20:12:59;11.27;;;4.95;;
23565;SDS011;22140;48.988;8.544;2023-01-28T20:18:01;11.20;;;5.27;;
23565;SDS011;22140;48.988;8.544;2023-01-28T20:23:05;12.35;;;4.80;;
23565;SDS011;22140;48.988;8.544;2023-01-28T20:28:06;12.97;;;4.87;;
23565;SDS011;22140;48.988;8.544;2023-01-28T20:33:07;11.93;;;4.90;;
23565;SDS011;22140;48.988;8.544;2023-01-28T20:38:09;11.52;;;4.53;;
23565;SDS011;22140;48.988;8.544;2023-01-28T20:43:10;12.43;;;5.30;;
23565;SDS011;22140;48.988;8.544;2023-01-28T20:48:12;11.93;;;5.80;;
23565;SDS011;22140;48.988;8.544;2023-01-28T20:53:13;11.63;;;4.77;;
23565;SDS011;22140;48.988;8.544;2023-01-28T20:58:14;41.65;;;12.60;;
23565;SDS011;22140;48.988;8.544;2023-01-28T21:03:15;27.05;;;11.95;;
23565;SDS011;22140;48.988;8.544;2023-01-28T21:08:17;19.80;;;6.73;;
23565;SDS011;22140;48.988;8.544;2023-01-28T21:13:18;13.60;;;5.70;;
23565;SDS011;22140;48.988;8.544;2023-01-28T21:18:20;12.50;;;5.30;;
23565;SDS011;22140;48.988;8.544;2023-01-28T21:23:21;12.30;;;4.72;;
23565;SDS011;22140;48.988;8.544;2023-01-28T21:28:23;11.65;;;5.00;;
23565;SDS011;22140;48.988;8.544;2023-01-28T21:33:24;10.53;;;4.50;;
23565;SDS011;22140;48.988;8.544;2023-01-28T21:38:26;12.15;;;4.88;;
23565;SDS011;22140;48.988;8.544;2023-01-28T21:43:27;11.87;;;4.93;;
23565;SDS011;22140;48.988;8.544;2023-01-28T21:48:28;13.52;;;4.90;;
23565;SDS011;22140;48.988;8.544;2023-01-28T21:53:30;12.15;;;4.50;;
23565;SDS011;22140;48.988;8.544;2023-01-28T21:58:35;19.87;;;6.53;;
23565;SDS011;22140;48.988;8.544;2023-01-28T22:04:08;9.70;;;4.10;;
23565;SDS011;22140;48.988;8.544;2023-01-28T22:09:11;10.17;;;4.13;;
23565;SDS011;22140;48.988;8.544;2023-01-28T22:14:14;11.98;;;4.40;;
23565;SDS011;22140;48.988;8.544;2023-01-28T22:19:15;8.77;;;3.80;;
23565;SDS011;22140;48.988;8.544;2023-01-28T22:24:17;12.03;;;4.60;;
23565;SDS011;22140;48.988;8.544;2023-01-28T22:29:19;9.57;;;4.00;;
23565;SDS011;22140;48.988;8.544;2023-01-28T22:34:21;9.10;;;3.73;;
23565;SDS011;22140;48.988;8.544;2023-01-28T22:39:23;8.48;;;3.80;;
23565;SDS011;22140;48.988;8.544;2023-01-28T22:44:24;9.32;;;3.97;;
23565;SDS011;22140;48.988;8.544;2023-01-28T22:49:27;9.80;;;3.97;;
23565;SDS011;22140;48.988;8.544;2023-01-28T22:54:31;12.55;;;5.20;;
23565;SDS011;22140;48.988;8.544;2023-01-28T22:59:32;13.00;;;4.47;;
23565;SDS011;22140;48.988;8.544;2023-01-28T23:04:33;9.45;;;3.88;;
23565;SDS011;22140;48.988;8.544;2023-01-28T23:09:35;12.75;;;4.85;;
23565;SDS011;22140;48.988;8.544;2023-01-28T23:14:36;12.23;;;5.07;;
23565;SDS011;22140;48.988;8.544;2023-01-28T23:19:56;10.80;;;4.32;;
23565;SDS011;22140;48.988;8.544;2023-01-28T23:25:17;11.23;;;4.20;;
23565;SDS011;22140;48.988;8.544;2023-01-28T23:30:19;11.13;;;4.13;;
23565;SDS011;22140;48.988;8.544;2023-01-28T23:35:25;9.57;;;4.25;;
23565;SDS011;22140;48.988;8.544;2023-01-28T23:40:26;9.50;;;3.87;;
23565;SDS011;22140;48.988;8.544;2023-01-28T23:45:27;9.05;;;3.85;;
23565;SDS011;22140;48.988;8.544;2023-01-28T23:50:29;9.23;;;3.73;;
23565;SDS011;22140;48.988;8.544;2023-01-28T23:55:30;10.80;;;4.15;;
